createdAt,value
2023-03-08T00:02:41.648Z,1.50
2023-03-08T00:08:04.069Z,1.50
2023-03-08T00:13:28.671Z,2.58
2023-03-08T00:18:50.675Z,1.80
2023-03-08T00:24:13.422Z,1.85
2023-03-08T00:29:35.539Z,2.30
2023-03-08T00:34:57.828Z,2.20
2023-03-08T00:40:20.132Z,4.88
2023-03-08T00:45:41.798Z,3.25
2023-03-08T00:51:04.314Z,2.30
2023-03-08T00:56:28.803Z,1.77
2023-03-08T01:01:51.768Z,1.70
2023-03-08T01:07:13.786Z,1.60
2023-03-08T01:12:36.844Z,1.60
2023-03-08T01:17:58.931Z,1.95
2023-03-08T01:23:20.902Z,1.70
2023-03-08T01:28:43.466Z,2.22
2023-03-08T01:34:10.652Z,2.97
2023-03-08T01:39:32.899Z,1.95
2023-03-08T01:45:06.835Z,1.90
2023-03-08T01:50:30.270Z,2.75
2023-03-08T01:55:52.447Z,1.60
2023-03-08T02:01:15.699Z,1.80
2023-03-08T02:06:38.390Z,2.75
2023-03-08T02:12:04.908Z,1.58
2023-03-08T02:17:27.601Z,1.83
2023-03-08T02:22:53.714Z,1.60
2023-03-08T02:28:15.936Z,1.80
2023-03-08T02:33:42.379Z,1.95
2023-03-08T02:39:04.483Z,1.50
2023-03-08T02:44:26.810Z,1.60
2023-03-08T02:49:48.667Z,1.60
2023-03-08T02:55:11.184Z,3.00
2023-03-08T03:00:34.698Z,1.50
2023-03-08T03:05:57.207Z,4.75
2023-03-08T03:11:25.909Z,1.50
2023-03-08T03:16:48.581Z,1.60
2023-03-08T03:22:11.396Z,1.65
2023-03-08T03:27:33.753Z,3.45
2023-03-08T03:32:55.831Z,1.50
2023-03-08T03:38:22.344Z,1.50
2023-03-08T03:43:45.129Z,2.85
2023-03-08T03:49:11.951Z,1.60
2023-03-08T03:54:40.111Z,4.53
2023-03-08T04:00:07.755Z,1.60
2023-03-08T04:11:03.196Z,7.97
2023-03-08T04:16:34.081Z,1.50
2023-03-08T04:21:59.939Z,1.55
2023-03-08T04:27:28.198Z,1.70
2023-03-08T04:32:50.083Z,1.52
2023-03-08T04:38:12.795Z,2.08
2023-03-08T04:43:35.668Z,1.60
2023-03-08T04:49:01.554Z,1.50
2023-03-08T04:54:29.036Z,1.60
2023-03-08T04:59:58.205Z,1.60
2023-03-08T05:05:21.478Z,1.50
2023-03-08T05:11:03.147Z,4.00
2023-03-08T05:16:28.875Z,2.25
2023-03-08T05:21:51.932Z,1.50
2023-03-08T05:27:17.583Z,1.58
2023-03-08T05:32:43.611Z,1.50
2023-03-08T05:38:06.071Z,1.85
2023-03-08T05:43:28.864Z,5.32
2023-03-08T05:48:51.431Z,4.78
2023-03-08T05:54:14.679Z,5.53
2023-03-08T05:59:39.856Z,1.80
2023-03-08T06:05:05.713Z,1.60
2023-03-08T06:10:28.710Z,1.50
2023-03-08T06:15:58.794Z,1.58
2023-03-08T06:21:22.703Z,1.50
2023-03-08T06:26:52.318Z,1.50
2023-03-08T06:32:14.406Z,2.85
2023-03-08T06:37:36.694Z,1.63
2023-03-08T06:43:01.318Z,7.25
2023-03-08T06:48:23.803Z,2.03
2023-03-08T06:53:47.959Z,2.63
2023-03-08T06:59:15.224Z,1.92
2023-03-08T07:04:37.169Z,10.35
2023-03-08T07:09:59.071Z,7.10
2023-03-08T07:15:24.724Z,1.60
2023-03-08T07:20:58.967Z,1.80
2023-03-08T07:26:20.771Z,8.80
2023-03-08T07:31:46.119Z,4.78
2023-03-08T07:37:16.840Z,3.17
2023-03-08T07:42:38.996Z,8.57
2023-03-08T07:48:15.431Z,7.88
2023-03-08T07:53:38.020Z,3.83
2023-03-08T07:59:00.947Z,7.82
2023-03-08T08:04:23.883Z,12.50
2023-03-08T08:09:45.926Z,9.10
2023-03-08T08:15:08.591Z,5.15
2023-03-08T08:20:31.320Z,6.78
2023-03-08T08:25:54.177Z,5.95
2023-03-08T08:31:19.033Z,5.97
2023-03-08T08:36:41.065Z,6.82
2023-03-08T08:42:04.356Z,9.25
2023-03-08T08:47:32.044Z,6.35
2023-03-08T08:52:54.037Z,6.43
2023-03-08T08:58:18.900Z,6.68
2023-03-08T09:03:40.834Z,3.78
2023-03-08T09:09:03.216Z,6.30
2023-03-08T09:14:26.399Z,2.45
2023-03-08T09:19:48.648Z,5.05
2023-03-08T09:25:11.984Z,5.53
2023-03-08T09:30:34.663Z,7.07
2023-03-08T09:35:58.153Z,7.78
2023-03-08T09:41:22.046Z,8.95
2023-03-08T09:47:11.877Z,6.05
2023-03-08T09:52:41.582Z,5.30
2023-03-08T09:58:20.319Z,10.65
2023-03-08T10:04:16.312Z,8.20
2023-03-08T10:09:45.476Z,5.25
2023-03-08T10:15:18.427Z,1.70
2023-03-08T10:20:42.477Z,8.20
2023-03-08T10:26:10.646Z,7.57
2023-03-08T10:31:34.311Z,7.20
2023-03-08T10:37:06.931Z,6.97
2023-03-08T10:42:29.574Z,4.47
2023-03-08T10:48:02.823Z,5.57
2023-03-08T10:53:24.931Z,5.90
2023-03-08T10:58:48.908Z,4.00
2023-03-08T11:04:15.762Z,7.30
2023-03-08T11:09:37.934Z,6.78
2023-03-08T11:14:59.932Z,6.70
2023-03-08T11:20:57.147Z,4.55
2023-03-08T11:26:50.191Z,5.30
2023-03-08T11:32:40.357Z,4.10
2023-03-08T11:38:22.692Z,4.65
2023-03-08T11:44:10.065Z,4.70
2023-03-08T11:49:53.908Z,3.08
2023-03-08T11:55:43.382Z,5.03
2023-03-08T12:01:15.708Z,7.20
2023-03-08T12:06:44.752Z,6.13
2023-03-08T12:12:19.622Z,7.13
2023-03-08T12:17:47.321Z,5.70
2023-03-08T12:23:22.318Z,7.88
2023-03-08T12:28:59.113Z,5.93
2023-03-08T12:34:38.635Z,6.88
2023-03-08T12:40:09.010Z,7.55
2023-03-08T12:45:37.632Z,5.65
2023-03-08T12:51:03.380Z,5.95
2023-03-08T12:56:31.995Z,4.07
2023-03-08T13:02:00.389Z,7.43
2023-03-08T13:07:32.918Z,5.88
2023-03-08T13:13:10.194Z,3.35
2023-03-08T13:18:32.402Z,4.88
2023-03-08T13:24:05.084Z,6.10
2023-03-08T13:29:32.988Z,4.65
2023-03-08T13:35:03.801Z,8.05
2023-03-08T13:40:26.779Z,4.55
2023-03-08T13:45:52.074Z,6.80
2023-03-08T13:51:21.090Z,7.65
2023-03-08T13:56:43.403Z,4.43
2023-03-08T14:02:27.001Z,7.47
2023-03-08T14:08:07.317Z,4.07
2023-03-08T14:13:37.849Z,10.25
2023-03-08T14:19:09.669Z,5.93
2023-03-08T14:24:34.846Z,3.53
2023-03-08T14:30:13.243Z,9.68
2023-03-08T14:35:42.394Z,1.92
2023-03-08T14:41:12.600Z,2.53
2023-03-08T14:46:35.071Z,6.05
2023-03-08T14:51:57.606Z,6.93
2023-03-08T14:57:22.548Z,6.30
2023-03-08T15:02:45.005Z,8.18
2023-03-08T15:08:11.152Z,4.50
2023-03-08T15:13:33.366Z,7.25
2023-03-08T15:18:55.608Z,8.70
2023-03-08T15:24:19.257Z,6.80
2023-03-08T15:29:41.454Z,8.10
2023-03-08T15:35:03.635Z,11.27
2023-03-08T15:40:28.814Z,8.95
2023-03-08T15:45:50.911Z,8.57
2023-03-08T15:51:24.965Z,9.05
2023-03-08T15:56:48.744Z,9.65
2023-03-08T16:02:20.024Z,13.35
2023-03-08T16:07:43.059Z,10.88
2023-03-08T16:13:05.646Z,9.45
2023-03-08T16:18:29.743Z,10.70
2023-03-08T16:23:53.359Z,10.45
2023-03-08T16:29:15.518Z,12.38
2023-03-08T16:34:38.397Z,10.98
2023-03-08T16:40:02.536Z,8.40
2023-03-08T16:45:25.176Z,8.15
2023-03-08T16:50:56.273Z,12.98
2023-03-08T16:56:26.581Z,5.75
2023-03-08T17:01:51.084Z,6.55
2023-03-08T17:07:14.290Z,9.80
2023-03-08T17:12:36.576Z,12.10
2023-03-08T17:17:59.189Z,11.80
2023-03-08T17:23:22.867Z,11.25
2023-03-08T17:28:45.334Z,11.82
2023-03-08T17:34:10.628Z,12.60
2023-03-08T17:39:33.135Z,12.77
2023-03-08T17:44:55.218Z,13.30
2023-03-08T17:50:23.133Z,12.38
2023-03-08T17:55:45.607Z,12.10
2023-03-08T18:01:09.529Z,12.93
2023-03-08T18:06:41.449Z,11.00
2023-03-08T18:12:06.500Z,10.38
2023-03-08T18:17:28.123Z,13.35
2023-03-08T18:22:51.359Z,12.23
2023-03-08T18:28:13.467Z,13.20
2023-03-08T18:33:35.373Z,11.15
2023-03-08T18:38:57.429Z,12.38
2023-03-08T18:44:19.759Z,12.13
2023-03-08T18:49:44.590Z,15.57
2023-03-08T18:55:07.766Z,16.92
2023-03-08T19:00:29.785Z,15.23
2023-03-08T19:05:51.704Z,15.70
2023-03-08T19:11:13.577Z,18.77
2023-03-08T19:22:17.181Z,23.30
2023-03-08T19:27:45.387Z,18.33
2023-03-08T19:33:18.463Z,22.10
2023-03-08T19:38:51.005Z,24.77
2023-03-08T19:44:13.233Z,27.55
2023-03-08T19:49:39.576Z,24.23
2023-03-08T19:55:02.594Z,23.50
2023-03-08T20:00:31.237Z,23.08
2023-03-08T20:05:58.093Z,25.45
2023-03-08T20:12:17.957Z,29.77
2023-03-08T20:17:48.287Z,30.92
2023-03-08T20:23:11.601Z,26.88
2023-03-08T20:28:34.050Z,23.98
2023-03-08T20:33:57.018Z,34.53
2023-03-08T20:39:23.232Z,28.38
2023-03-08T20:44:46.232Z,18.52
2023-03-08T20:50:08.988Z,5.03
2023-03-08T20:55:30.907Z,24.63
2023-03-08T21:00:53.578Z,22.00
2023-03-08T21:06:22.781Z,24.13
2023-03-08T21:12:34.083Z,13.88
2023-03-08T21:18:08.853Z,14.80
2023-03-08T21:24:00.188Z,8.60
2023-03-08T21:29:34.995Z,26.38
2023-03-08T21:35:36.368Z,23.52
2023-03-08T21:47:06.336Z,10.77
2023-03-08T22:04:16.856Z,2.58
2023-03-08T22:10:09.906Z,2.42
2023-03-08T22:15:32.167Z,1.50
2023-03-08T22:20:57.240Z,2.00
2023-03-08T22:26:20.530Z,7.07
2023-03-08T22:31:42.486Z,2.30
2023-03-08T22:37:05.661Z,4.70
2023-03-08T22:42:27.190Z,1.55
2023-03-08T22:47:51.550Z,8.95
2023-03-08T22:53:13.189Z,5.30
2023-03-08T22:58:35.301Z,13.85
2023-03-08T23:04:00.043Z,2.38
2023-03-08T23:09:24.242Z,9.63
2023-03-08T23:14:46.373Z,6.35
2023-03-08T23:20:08.958Z,8.52
2023-03-08T23:25:31.399Z,4.80
2023-03-08T23:30:54.272Z,3.25
2023-03-08T23:36:21.796Z,3.35
2023-03-08T23:41:45.863Z,8.18
2023-03-08T23:47:08.372Z,8.75
2023-03-08T23:52:30.285Z,5.47
2023-03-08T23:57:52.553Z,4.15
